sensor_id;sensor_type;location;lat;lon;timestamp;temperature;humidity
40257;DHT22;25977;45.462;9.210;2022-07-12T00:02:14;26.70;54.50
40257;DHT22;25977;45.462;9.210;2022-07-12T00:04:40;26.80;54.40
40257;DHT22;25977;45.462;9.210;2022-07-12T00:07:06;26.80;54.20
40257;DHT22;25977;45.462;9.210;2022-07-12T00:09:32;26.80;54.00
40257;DHT22;25977;45.462;9.210;2022-07-12T00:11:58;26.60;54.00
40257;DHT22;25977;45.462;9.210;2022-07-12T00:14:24;26.60;54.00
40257;DHT22;25977;45.462;9.210;2022-07-12T00:16:50;26.50;54.00
40257;DHT22;25977;45.462;9.210;2022-07-12T00:19:17;26.50;53.90
40257;DHT22;25977;45.462;9.210;2022-07-12T00:21:43;26.40;53.80
40257;DHT22;25977;45.462;9.210;2022-07-12T00:24:09;26.30;54.20
40257;DHT22;25977;45.462;9.210;2022-07-12T00:26:35;26.10;54.40
40257;DHT22;25977;45.462;9.210;2022-07-12T00:29:01;26.30;53.70
40257;DHT22;25977;45.462;9.210;2022-07-12T00:31:27;26.40;53.80
40257;DHT22;25977;45.462;9.210;2022-07-12T00:33:52;26.40;53.70
40257;DHT22;25977;45.462;9.210;2022-07-12T00:36:18;26.40;53.40
40257;DHT22;25977;45.462;9.210;2022-07-12T00:38:45;26.40;53.50
40257;DHT22;25977;45.462;9.210;2022-07-12T00:41:11;26.40;53.40
40257;DHT22;25977;45.462;9.210;2022-07-12T00:43:37;26.50;53.00
40257;DHT22;25977;45.462;9.210;2022-07-12T00:46:02;26.30;53.20
40257;DHT22;25977;45.462;9.210;2022-07-12T00:48:28;26.30;53.00
40257;DHT22;25977;45.462;9.210;2022-07-12T00:50:56;26.30;52.90
40257;DHT22;25977;45.462;9.210;2022-07-12T00:53:21;26.30;52.60
40257;DHT22;25977;45.462;9.210;2022-07-12T00:55:57;26.30;52.70
40257;DHT22;25977;45.462;9.210;2022-07-12T00:58:24;26.30;52.40
40257;DHT22;25977;45.462;9.210;2022-07-12T01:00:50;26.30;52.40
40257;DHT22;25977;45.462;9.210;2022-07-12T01:03:17;26.20;52.10
40257;DHT22;25977;45.462;9.210;2022-07-12T01:05:42;26.10;52.30
40257;DHT22;25977;45.462;9.210;2022-07-12T01:08:11;26.00;52.60
40257;DHT22;25977;45.462;9.210;2022-07-12T01:10:38;26.00;52.30
40257;DHT22;25977;45.462;9.210;2022-07-12T01:13:04;26.00;52.10
40257;DHT22;25977;45.462;9.210;2022-07-12T01:15:30;26.00;52.00
40257;DHT22;25977;45.462;9.210;2022-07-12T01:17:57;26.00;52.20
40257;DHT22;25977;45.462;9.210;2022-07-12T01:20:23;26.00;51.60
40257;DHT22;25977;45.462;9.210;2022-07-12T01:22:54;26.00;51.70
40257;DHT22;25977;45.462;9.210;2022-07-12T01:25:21;26.00;51.60
40257;DHT22;25977;45.462;9.210;2022-07-12T01:27:46;26.10;51.50
40257;DHT22;25977;45.462;9.210;2022-07-12T01:30:12;26.10;51.50
40257;DHT22;25977;45.462;9.210;2022-07-12T01:32:39;25.90;51.60
40257;DHT22;25977;45.462;9.210;2022-07-12T01:35:06;25.80;51.90
40257;DHT22;25977;45.462;9.210;2022-07-12T01:37:40;25.80;51.80
40257;DHT22;25977;45.462;9.210;2022-07-12T01:40:09;25.80;51.80
40257;DHT22;25977;45.462;9.210;2022-07-12T01:42:35;25.80;52.10
40257;DHT22;25977;45.462;9.210;2022-07-12T01:45:01;25.90;51.90
40257;DHT22;25977;45.462;9.210;2022-07-12T01:47:30;25.90;51.80
40257;DHT22;25977;45.462;9.210;2022-07-12T01:49:56;26.00;51.80
40257;DHT22;25977;45.462;9.210;2022-07-12T01:52:22;26.00;51.70
40257;DHT22;25977;45.462;9.210;2022-07-12T01:54:48;25.90;51.80
40257;DHT22;25977;45.462;9.210;2022-07-12T01:57:15;25.80;51.80
40257;DHT22;25977;45.462;9.210;2022-07-12T01:59:41;25.80;51.90
40257;DHT22;25977;45.462;9.210;2022-07-12T02:02:07;25.40;52.40
40257;DHT22;25977;45.462;9.210;2022-07-12T02:04:33;25.40;52.60
40257;DHT22;25977;45.462;9.210;2022-07-12T02:06:59;25.50;52.50
40257;DHT22;25977;45.462;9.210;2022-07-12T02:09:26;25.60;52.40
40257;DHT22;25977;45.462;9.210;2022-07-12T02:11:53;25.50;52.30
40257;DHT22;25977;45.462;9.210;2022-07-12T02:14:19;25.70;52.20
40257;DHT22;25977;45.462;9.210;2022-07-12T02:16:45;25.70;52.10
40257;DHT22;25977;45.462;9.210;2022-07-12T02:19:12;25.70;51.90
40257;DHT22;25977;45.462;9.210;2022-07-12T02:21:38;25.30;52.30
40257;DHT22;25977;45.462;9.210;2022-07-12T02:24:05;25.40;52.30
40257;DHT22;25977;45.462;9.210;2022-07-12T02:26:36;25.60;52.30
40257;DHT22;25977;45.462;9.210;2022-07-12T02:29:05;25.60;52.00
40257;DHT22;25977;45.462;9.210;2022-07-12T02:31:32;25.60;52.20
40257;DHT22;25977;45.462;9.210;2022-07-12T02:33:58;25.40;52.20
40257;DHT22;25977;45.462;9.210;2022-07-12T02:36:24;25.50;52.20
40257;DHT22;25977;45.462;9.210;2022-07-12T02:38:50;25.60;52.00
40257;DHT22;25977;45.462;9.210;2022-07-12T02:41:16;25.60;51.90
40257;DHT22;25977;45.462;9.210;2022-07-12T02:43:42;25.60;51.90
40257;DHT22;25977;45.462;9.210;2022-07-12T02:46:10;25.60;51.80
40257;DHT22;25977;45.462;9.210;2022-07-12T02:48:36;25.40;51.70
40257;DHT22;25977;45.462;9.210;2022-07-12T02:51:03;25.50;52.00
40257;DHT22;25977;45.462;9.210;2022-07-12T02:53:29;25.60;51.90
40257;DHT22;25977;45.462;9.210;2022-07-12T02:55:56;25.70;51.60
40257;DHT22;25977;45.462;9.210;2022-07-12T02:58:21;25.60;51.70
40257;DHT22;25977;45.462;9.210;2022-07-12T03:00:47;25.60;51.70
40257;DHT22;25977;45.462;9.210;2022-07-12T03:03:13;25.50;51.80
40257;DHT22;25977;45.462;9.210;2022-07-12T03:05:40;25.40;51.90
40257;DHT22;25977;45.462;9.210;2022-07-12T03:08:07;25.50;51.90
40257;DHT22;25977;45.462;9.210;2022-07-12T03:10:34;25.50;51.90
40257;DHT22;25977;45.462;9.210;2022-07-12T03:12:59;25.50;51.90
40257;DHT22;25977;45.462;9.210;2022-07-12T03:15:25;25.50;51.80
40257;DHT22;25977;45.462;9.210;2022-07-12T03:17:51;25.50;52.00
40257;DHT22;25977;45.462;9.210;2022-07-12T03:20:17;25.50;52.10
40257;DHT22;25977;45.462;9.210;2022-07-12T03:22:44;25.50;52.20
40257;DHT22;25977;45.462;9.210;2022-07-12T03:25:12;25.50;52.20
40257;DHT22;25977;45.462;9.210;2022-07-12T03:27:38;25.50;52.20
40257;DHT22;25977;45.462;9.210;2022-07-12T03:30:04;25.50;52.20
40257;DHT22;25977;45.462;9.210;2022-07-12T03:32:30;25.50;52.10
40257;DHT22;25977;45.462;9.210;2022-07-12T03:34:56;25.50;52.10
40257;DHT22;25977;45.462;9.210;2022-07-12T03:37:22;25.40;52.30
40257;DHT22;25977;45.462;9.210;2022-07-12T03:39:47;25.20;52.60
40257;DHT22;25977;45.462;9.210;2022-07-12T03:42:13;25.10;52.90
40257;DHT22;25977;45.462;9.210;2022-07-12T03:44:39;25.10;52.90
40257;DHT22;25977;45.462;9.210;2022-07-12T03:47:05;25.10;53.00
40257;DHT22;25977;45.462;9.210;2022-07-12T03:49:31;25.30;53.00
40257;DHT22;25977;45.462;9.210;2022-07-12T03:51:56;25.40;52.80
40257;DHT22;25977;45.462;9.210;2022-07-12T03:54:22;25.50;53.00
40257;DHT22;25977;45.462;9.210;2022-07-12T03:56:48;25.50;52.90
40257;DHT22;25977;45.462;9.210;2022-07-12T03:59:33;25.40;53.40
40257;DHT22;25977;45.462;9.210;2022-07-12T04:01:58;25.50;53.20
40257;DHT22;25977;45.462;9.210;2022-07-12T04:04:24;25.50;53.20
40257;DHT22;25977;45.462;9.210;2022-07-12T04:06:51;25.50;53.20
40257;DHT22;25977;45.462;9.210;2022-07-12T04:09:16;25.50;53.20
40257;DHT22;25977;45.462;9.210;2022-07-12T04:11:42;25.30;53.80
40257;DHT22;25977;45.462;9.210;2022-07-12T04:14:08;25.40;53.70
40257;DHT22;25977;45.462;9.210;2022-07-12T04:16:34;25.40;53.80
40257;DHT22;25977;45.462;9.210;2022-07-12T04:19:00;25.40;53.90
40257;DHT22;25977;45.462;9.210;2022-07-12T04:21:26;25.50;53.80
40257;DHT22;25977;45.462;9.210;2022-07-12T04:23:51;25.50;53.80
40257;DHT22;25977;45.462;9.210;2022-07-12T04:26:17;25.60;53.60
40257;DHT22;25977;45.462;9.210;2022-07-12T04:28:43;25.70;53.40
40257;DHT22;25977;45.462;9.210;2022-07-12T04:31:09;25.80;53.10
40257;DHT22;25977;45.462;9.210;2022-07-12T04:33:35;25.80;53.00
40257;DHT22;25977;45.462;9.210;2022-07-12T04:36:01;25.70;53.00
40257;DHT22;25977;45.462;9.210;2022-07-12T04:38:27;25.70;53.00
40257;DHT22;25977;45.462;9.210;2022-07-12T04:40:53;25.70;53.00
40257;DHT22;25977;45.462;9.210;2022-07-12T04:43:18;25.70;52.70
40257;DHT22;25977;45.462;9.210;2022-07-12T04:45:44;25.70;52.60
40257;DHT22;25977;45.462;9.210;2022-07-12T04:48:11;25.70;52.40
40257;DHT22;25977;45.462;9.210;2022-07-12T04:50:37;25.60;52.70
40257;DHT22;25977;45.462;9.210;2022-07-12T04:53:03;25.60;52.20
40257;DHT22;25977;45.462;9.210;2022-07-12T04:55:29;25.70;52.10
40257;DHT22;25977;45.462;9.210;2022-07-12T04:57:54;25.70;52.10
40257;DHT22;25977;45.462;9.210;2022-07-12T05:00:21;25.80;51.90
40257;DHT22;25977;45.462;9.210;2022-07-12T05:02:46;25.80;52.00
40257;DHT22;25977;45.462;9.210;2022-07-12T05:05:12;25.80;52.00
40257;DHT22;25977;45.462;9.210;2022-07-12T05:07:42;25.60;52.30
40257;DHT22;25977;45.462;9.210;2022-07-12T05:10:09;25.60;52.30
40257;DHT22;25977;45.462;9.210;2022-07-12T05:12:35;25.60;52.20
40257;DHT22;25977;45.462;9.210;2022-07-12T05:15:01;25.80;52.10
40257;DHT22;25977;45.462;9.210;2022-07-12T05:17:27;26.00;51.70
40257;DHT22;25977;45.462;9.210;2022-07-12T05:19:52;26.10;51.70
40257;DHT22;25977;45.462;9.210;2022-07-12T05:22:18;25.80;52.00
40257;DHT22;25977;45.462;9.210;2022-07-12T05:24:44;25.90;52.00
40257;DHT22;25977;45.462;9.210;2022-07-12T05:27:09;25.90;51.80
40257;DHT22;25977;45.462;9.210;2022-07-12T05:29:35;25.90;52.10
40257;DHT22;25977;45.462;9.210;2022-07-12T05:32:01;26.10;52.00
40257;DHT22;25977;45.462;9.210;2022-07-12T05:34:28;26.00;51.60
40257;DHT22;25977;45.462;9.210;2022-07-12T05:36:54;26.00;51.60
40257;DHT22;25977;45.462;9.210;2022-07-12T05:39:19;26.40;51.30
40257;DHT22;25977;45.462;9.210;2022-07-12T05:41:45;26.70;50.80
40257;DHT22;25977;45.462;9.210;2022-07-12T05:44:12;27.30;50.00
40257;DHT22;25977;45.462;9.210;2022-07-12T05:46:38;27.30;49.90
40257;DHT22;25977;45.462;9.210;2022-07-12T05:49:06;27.60;49.80
40257;DHT22;25977;45.462;9.210;2022-07-12T05:51:32;27.90;49.40
40257;DHT22;25977;45.462;9.210;2022-07-12T05:54:17;28.30;48.90
40257;DHT22;25977;45.462;9.210;2022-07-12T05:56:43;28.20;49.00
40257;DHT22;25977;45.462;9.210;2022-07-12T05:59:09;28.20;49.20
40257;DHT22;25977;45.462;9.210;2022-07-12T06:01:35;28.20;49.30
40257;DHT22;25977;45.462;9.210;2022-07-12T06:04:01;28.20;49.40
40257;DHT22;25977;45.462;9.210;2022-07-12T06:06:27;28.30;49.20
40257;DHT22;25977;45.462;9.210;2022-07-12T06:08:53;28.80;48.80
40257;DHT22;25977;45.462;9.210;2022-07-12T06:11:18;29.10;48.70
40257;DHT22;25977;45.462;9.210;2022-07-12T06:13:44;28.70;48.90
40257;DHT22;25977;45.462;9.210;2022-07-12T06:16:10;28.30;49.80
40257;DHT22;25977;45.462;9.210;2022-07-12T06:18:37;28.80;49.50
40257;DHT22;25977;45.462;9.210;2022-07-12T06:21:03;28.40;49.50
40257;DHT22;25977;45.462;9.210;2022-07-12T06:23:30;28.30;50.30
40257;DHT22;25977;45.462;9.210;2022-07-12T06:25:56;28.00;50.50
40257;DHT22;25977;45.462;9.210;2022-07-12T06:28:21;28.20;50.60
40257;DHT22;25977;45.462;9.210;2022-07-12T06:30:47;27.90;51.20
40257;DHT22;25977;45.462;9.210;2022-07-12T06:33:13;27.70;51.30
40257;DHT22;25977;45.462;9.210;2022-07-12T06:35:39;28.00;51.50
40257;DHT22;25977;45.462;9.210;2022-07-12T06:38:05;27.80;51.60
40257;DHT22;25977;45.462;9.210;2022-07-12T06:40:30;27.70;51.80
40257;DHT22;25977;45.462;9.210;2022-07-12T06:42:56;27.70;52.30
40257;DHT22;25977;45.462;9.210;2022-07-12T06:45:22;28.10;51.70
40257;DHT22;25977;45.462;9.210;2022-07-12T06:47:48;28.50;51.40
40257;DHT22;25977;45.462;9.210;2022-07-12T06:50:14;28.40;51.10
40257;DHT22;25977;45.462;9.210;2022-07-12T06:52:40;28.40;51.40
40257;DHT22;25977;45.462;9.210;2022-07-12T06:55:07;28.50;51.20
40257;DHT22;25977;45.462;9.210;2022-07-12T06:57:33;28.40;51.50
40257;DHT22;25977;45.462;9.210;2022-07-12T07:00:00;28.30;51.60
40257;DHT22;25977;45.462;9.210;2022-07-12T07:02:26;28.10;52.00
40257;DHT22;25977;45.462;9.210;2022-07-12T07:04:52;28.40;52.00
40257;DHT22;25977;45.462;9.210;2022-07-12T07:07:18;28.40;51.80
40257;DHT22;25977;45.462;9.210;2022-07-12T07:09:43;28.60;51.80
40257;DHT22;25977;45.462;9.210;2022-07-12T07:12:09;28.70;51.70
40257;DHT22;25977;45.462;9.210;2022-07-12T07:14:35;28.70;51.50
40257;DHT22;25977;45.462;9.210;2022-07-12T07:17:01;28.70;51.90
40257;DHT22;25977;45.462;9.210;2022-07-12T07:19:26;28.00;52.40
40257;DHT22;25977;45.462;9.210;2022-07-12T07:21:53;27.90;53.20
40257;DHT22;25977;45.462;9.210;2022-07-12T07:24:22;27.50;53.20
40257;DHT22;25977;45.462;9.210;2022-07-12T07:26:48;27.50;54.00
40257;DHT22;25977;45.462;9.210;2022-07-12T07:29:14;27.90;53.50
40257;DHT22;25977;45.462;9.210;2022-07-12T07:31:58;28.00;53.20
40257;DHT22;25977;45.462;9.210;2022-07-12T07:34:24;27.90;53.40
40257;DHT22;25977;45.462;9.210;2022-07-12T07:36:51;28.20;53.70
40257;DHT22;25977;45.462;9.210;2022-07-12T07:39:17;28.40;52.90
40257;DHT22;25977;45.462;9.210;2022-07-12T07:41:43;28.40;52.60
40257;DHT22;25977;45.462;9.210;2022-07-12T07:44:08;28.60;52.70
40257;DHT22;25977;45.462;9.210;2022-07-12T07:46:34;28.80;52.20
40257;DHT22;25977;45.462;9.210;2022-07-12T07:49:00;28.60;52.10
40257;DHT22;25977;45.462;9.210;2022-07-12T07:51:26;28.60;52.30
40257;DHT22;25977;45.462;9.210;2022-07-12T07:53:51;28.90;52.10
40257;DHT22;25977;45.462;9.210;2022-07-12T07:56:17;29.20;51.70
40257;DHT22;25977;45.462;9.210;2022-07-12T07:58:43;29.40;51.40
40257;DHT22;25977;45.462;9.210;2022-07-12T08:01:08;29.50;51.10
40257;DHT22;25977;45.462;9.210;2022-07-12T08:03:34;29.30;51.10
40257;DHT22;25977;45.462;9.210;2022-07-12T08:06:00;29.30;51.10
40257;DHT22;25977;45.462;9.210;2022-07-12T08:08:27;29.40;51.10
40257;DHT22;25977;45.462;9.210;2022-07-12T08:10:54;29.10;51.50
40257;DHT22;25977;45.462;9.210;2022-07-12T08:13:20;29.00;51.80
40257;DHT22;25977;45.462;9.210;2022-07-12T08:15:46;29.40;51.30
40257;DHT22;25977;45.462;9.210;2022-07-12T08:18:12;29.70;50.90
40257;DHT22;25977;45.462;9.210;2022-07-12T08:20:38;29.70;51.00
40257;DHT22;25977;45.462;9.210;2022-07-12T08:23:04;29.50;50.80
40257;DHT22;25977;45.462;9.210;2022-07-12T08:25:30;29.70;50.90
40257;DHT22;25977;45.462;9.210;2022-07-12T08:27:55;29.30;50.90
40257;DHT22;25977;45.462;9.210;2022-07-12T08:30:21;29.50;51.50
40257;DHT22;25977;45.462;9.210;2022-07-12T08:32:47;29.80;50.70
40257;DHT22;25977;45.462;9.210;2022-07-12T08:35:13;29.80;50.70
40257;DHT22;25977;45.462;9.210;2022-07-12T08:37:42;30.00;50.40
40257;DHT22;25977;45.462;9.210;2022-07-12T08:40:08;30.20;50.00
40257;DHT22;25977;45.462;9.210;2022-07-12T08:42:35;30.30;50.00
40257;DHT22;25977;45.462;9.210;2022-07-12T08:45:01;30.40;50.00
40257;DHT22;25977;45.462;9.210;2022-07-12T08:47:27;30.40;49.90
40257;DHT22;25977;45.462;9.210;2022-07-12T08:50:15;30.10;49.90
40257;DHT22;25977;45.462;9.210;2022-07-12T08:52:44;30.20;49.20
40257;DHT22;25977;45.462;9.210;2022-07-12T08:55:33;29.90;49.70
40257;DHT22;25977;45.462;9.210;2022-07-12T08:58:04;30.10;50.00
40257;DHT22;25977;45.462;9.210;2022-07-12T09:00:32;30.20;49.50
40257;DHT22;25977;45.462;9.210;2022-07-12T09:03:03;30.20;49.20
40257;DHT22;25977;45.462;9.210;2022-07-12T09:05:31;30.30;49.00
40257;DHT22;25977;45.462;9.210;2022-07-12T09:08:07;30.40;49.30
40257;DHT22;25977;45.462;9.210;2022-07-12T09:11:00;30.40;49.40
40257;DHT22;25977;45.462;9.210;2022-07-12T09:13:54;29.90;49.90
40257;DHT22;25977;45.462;9.210;2022-07-12T09:16:23;30.10;49.50
40257;DHT22;25977;45.462;9.210;2022-07-12T09:18:49;30.30;49.40
40257;DHT22;25977;45.462;9.210;2022-07-12T09:21:27;30.00;49.10
40257;DHT22;25977;45.462;9.210;2022-07-12T09:23:58;30.20;49.10
40257;DHT22;25977;45.462;9.210;2022-07-12T09:26:33;30.10;49.20
40257;DHT22;25977;45.462;9.210;2022-07-12T09:29:09;30.40;49.30
40257;DHT22;25977;45.462;9.210;2022-07-12T09:34:06;30.60;48.30
40257;DHT22;25977;45.462;9.210;2022-07-12T09:36:57;30.50;48.30
40257;DHT22;25977;45.462;9.210;2022-07-12T09:39:23;30.50;48.10
40257;DHT22;25977;45.462;9.210;2022-07-12T09:41:53;30.60;48.30
40257;DHT22;25977;45.462;9.210;2022-07-12T09:44:19;30.60;48.90
40257;DHT22;25977;45.462;9.210;2022-07-12T09:46:47;30.70;48.80
40257;DHT22;25977;45.462;9.210;2022-07-12T09:49:13;30.50;48.80
40257;DHT22;25977;45.462;9.210;2022-07-12T09:51:41;30.70;48.20
40257;DHT22;25977;45.462;9.210;2022-07-12T09:54:08;30.80;48.20
40257;DHT22;25977;45.462;9.210;2022-07-12T09:56:35;30.50;49.20
40257;DHT22;25977;45.462;9.210;2022-07-12T09:59:05;30.70;49.20
40257;DHT22;25977;45.462;9.210;2022-07-12T10:01:32;30.80;48.90
40257;DHT22;25977;45.462;9.210;2022-07-12T10:03:59;30.70;48.10
40257;DHT22;25977;45.462;9.210;2022-07-12T10:06:28;30.40;48.40
40257;DHT22;25977;45.462;9.210;2022-07-12T10:08:55;30.50;49.10
40257;DHT22;25977;45.462;9.210;2022-07-12T10:11:25;30.60;49.30
40257;DHT22;25977;45.462;9.210;2022-07-12T10:13:52;30.50;49.00
40257;DHT22;25977;45.462;9.210;2022-07-12T10:16:25;30.80;48.80
40257;DHT22;25977;45.462;9.210;2022-07-12T10:19:28;30.80;48.20
40257;DHT22;25977;45.462;9.210;2022-07-12T10:22:02;30.90;48.70
40257;DHT22;25977;45.462;9.210;2022-07-12T10:24:49;31.00;48.30
40257;DHT22;25977;45.462;9.210;2022-07-12T10:29:44;30.90;49.10
40257;DHT22;25977;45.462;9.210;2022-07-12T10:32:33;30.60;49.00
40257;DHT22;25977;45.462;9.210;2022-07-12T10:35:00;30.80;48.60
40257;DHT22;25977;45.462;9.210;2022-07-12T10:37:27;30.80;47.90
40257;DHT22;25977;45.462;9.210;2022-07-12T10:40:16;30.70;47.80
40257;DHT22;25977;45.462;9.210;2022-07-12T10:45:37;30.70;48.60
40257;DHT22;25977;45.462;9.210;2022-07-12T10:53:36;31.10;47.40
40257;DHT22;25977;45.462;9.210;2022-07-12T10:58:46;30.50;48.80
40257;DHT22;25977;45.462;9.210;2022-07-12T11:01:15;30.50;48.70
40257;DHT22;25977;45.462;9.210;2022-07-12T11:03:49;30.60;48.60
40257;DHT22;25977;45.462;9.210;2022-07-12T11:06:20;30.80;48.70
40257;DHT22;25977;45.462;9.210;2022-07-12T11:11:47;30.80;48.70
40257;DHT22;25977;45.462;9.210;2022-07-12T11:14:26;30.70;48.30
40257;DHT22;25977;45.462;9.210;2022-07-12T11:16:53;30.80;48.30
40257;DHT22;25977;45.462;9.210;2022-07-12T11:19:26;30.80;48.00
40257;DHT22;25977;45.462;9.210;2022-07-12T11:21:53;30.90;47.80
40257;DHT22;25977;45.462;9.210;2022-07-12T11:24:25;30.90;47.70
40257;DHT22;25977;45.462;9.210;2022-07-12T11:26:51;31.00;47.80
40257;DHT22;25977;45.462;9.210;2022-07-12T11:29:18;30.70;47.50
40257;DHT22;25977;45.462;9.210;2022-07-12T11:31:45;30.70;48.00
40257;DHT22;25977;45.462;9.210;2022-07-12T11:34:21;30.60;47.90
40257;DHT22;25977;45.462;9.210;2022-07-12T11:36:50;30.30;48.60
40257;DHT22;25977;45.462;9.210;2022-07-12T11:39:16;30.40;48.70
40257;DHT22;25977;45.462;9.210;2022-07-12T11:41:55;30.70;48.80
40257;DHT22;25977;45.462;9.210;2022-07-12T11:44:21;30.90;48.40
40257;DHT22;25977;45.462;9.210;2022-07-12T11:46:50;31.10;48.50
40257;DHT22;25977;45.462;9.210;2022-07-12T11:49:17;31.00;48.20
40257;DHT22;25977;45.462;9.210;2022-07-12T11:51:44;31.10;47.90
40257;DHT22;25977;45.462;9.210;2022-07-12T11:54:11;30.70;48.30
40257;DHT22;25977;45.462;9.210;2022-07-12T11:56:37;30.90;48.50
40257;DHT22;25977;45.462;9.210;2022-07-12T11:59:03;30.80;49.00
40257;DHT22;25977;45.462;9.210;2022-07-12T12:01:28;30.30;49.50
40257;DHT22;25977;45.462;9.210;2022-07-12T12:03:54;30.40;49.40
40257;DHT22;25977;45.462;9.210;2022-07-12T12:06:22;30.50;49.40
40257;DHT22;25977;45.462;9.210;2022-07-12T12:08:50;30.10;49.50
40257;DHT22;25977;45.462;9.210;2022-07-12T12:11:16;30.40;49.50
40257;DHT22;25977;45.462;9.210;2022-07-12T12:13:42;30.60;49.30
40257;DHT22;25977;45.462;9.210;2022-07-12T12:16:10;30.80;48.90
40257;DHT22;25977;45.462;9.210;2022-07-12T12:18:37;30.60;49.10
40257;DHT22;25977;45.462;9.210;2022-07-12T12:21:09;30.50;49.10
40257;DHT22;25977;45.462;9.210;2022-07-12T12:23:36;30.60;49.00
40257;DHT22;25977;45.462;9.210;2022-07-12T12:26:16;30.90;49.00
40257;DHT22;25977;45.462;9.210;2022-07-12T12:31:12;31.10;48.90
40257;DHT22;25977;45.462;9.210;2022-07-12T12:36:17;30.60;49.40
40257;DHT22;25977;45.462;9.210;2022-07-12T12:38:45;30.60;49.40
40257;DHT22;25977;45.462;9.210;2022-07-12T12:41:11;30.80;49.30
40257;DHT22;25977;45.462;9.210;2022-07-12T12:43:37;31.00;49.10
40257;DHT22;25977;45.462;9.210;2022-07-12T12:46:03;31.10;48.70
40257;DHT22;25977;45.462;9.210;2022-07-12T12:48:30;31.10;48.90
40257;DHT22;25977;45.462;9.210;2022-07-12T12:51:07;31.20;48.90
40257;DHT22;25977;45.462;9.210;2022-07-12T12:53:35;31.40;48.70
40257;DHT22;25977;45.462;9.210;2022-07-12T12:56:09;31.30;48.80
40257;DHT22;25977;45.462;9.210;2022-07-12T12:58:35;31.40;48.90
40257;DHT22;25977;45.462;9.210;2022-07-12T13:01:02;31.20;49.10
40257;DHT22;25977;45.462;9.210;2022-07-12T13:03:28;31.00;49.30
40257;DHT22;25977;45.462;9.210;2022-07-12T13:05:53;31.30;49.30
40257;DHT22;25977;45.462;9.210;2022-07-12T13:08:20;31.20;49.20
40257;DHT22;25977;45.462;9.210;2022-07-12T13:10:47;31.20;49.20
40257;DHT22;25977;45.462;9.210;2022-07-12T13:13:13;31.30;49.40
40257;DHT22;25977;45.462;9.210;2022-07-12T13:15:39;31.40;49.40
40257;DHT22;25977;45.462;9.210;2022-07-12T13:18:05;31.50;49.30
40257;DHT22;25977;45.462;9.210;2022-07-12T13:20:32;31.60;49.10
40257;DHT22;25977;45.462;9.210;2022-07-12T13:22:58;31.70;49.00
40257;DHT22;25977;45.462;9.210;2022-07-12T13:25:25;31.60;49.00
40257;DHT22;25977;45.462;9.210;2022-07-12T13:27:51;31.60;49.00
40257;DHT22;25977;45.462;9.210;2022-07-12T13:30:19;31.70;48.90
40257;DHT22;25977;45.462;9.210;2022-07-12T13:32:45;31.80;49.30
40257;DHT22;25977;45.462;9.210;2022-07-12T13:35:12;31.80;49.00
40257;DHT22;25977;45.462;9.210;2022-07-12T13:37:39;31.70;49.00
40257;DHT22;25977;45.462;9.210;2022-07-12T13:40:06;31.40;49.40
40257;DHT22;25977;45.462;9.210;2022-07-12T13:42:46;31.50;49.60
40257;DHT22;25977;45.462;9.210;2022-07-12T13:45:15;31.50;49.40
40257;DHT22;25977;45.462;9.210;2022-07-12T13:47:41;31.20;49.40
40257;DHT22;25977;45.462;9.210;2022-07-12T13:50:09;31.50;49.40
40257;DHT22;25977;45.462;9.210;2022-07-12T13:52:35;31.70;49.30
40257;DHT22;25977;45.462;9.210;2022-07-12T13:55:01;31.80;49.30
40257;DHT22;25977;45.462;9.210;2022-07-12T13:57:27;31.90;49.20
40257;DHT22;25977;45.462;9.210;2022-07-12T13:59:53;32.20;49.00
40257;DHT22;25977;45.462;9.210;2022-07-12T14:02:19;32.30;49.00
40257;DHT22;25977;45.462;9.210;2022-07-12T14:04:45;32.40;48.70
40257;DHT22;25977;45.462;9.210;2022-07-12T14:07:11;32.40;48.80
40257;DHT22;25977;45.462;9.210;2022-07-12T14:09:37;32.40;48.70
40257;DHT22;25977;45.462;9.210;2022-07-12T14:12:03;32.20;48.70
40257;DHT22;25977;45.462;9.210;2022-07-12T14:14:30;32.20;48.60
40257;DHT22;25977;45.462;9.210;2022-07-12T14:17:14;32.20;48.50
40257;DHT22;25977;45.462;9.210;2022-07-12T14:19:40;32.30;48.50
40257;DHT22;25977;45.462;9.210;2022-07-12T14:22:06;32.40;48.30
40257;DHT22;25977;45.462;9.210;2022-07-12T14:24:31;32.40;48.20
40257;DHT22;25977;45.462;9.210;2022-07-12T14:26:57;32.50;48.20
40257;DHT22;25977;45.462;9.210;2022-07-12T14:29:23;32.40;48.40
40257;DHT22;25977;45.462;9.210;2022-07-12T14:31:48;32.10;48.80
40257;DHT22;25977;45.462;9.210;2022-07-12T14:34:15;31.80;49.10
40257;DHT22;25977;45.462;9.210;2022-07-12T14:36:41;31.90;49.20
40257;DHT22;25977;45.462;9.210;2022-07-12T14:39:07;31.90;49.10
40257;DHT22;25977;45.462;9.210;2022-07-12T14:41:33;32.00;49.10
40257;DHT22;25977;45.462;9.210;2022-07-12T14:43:58;31.90;49.10
40257;DHT22;25977;45.462;9.210;2022-07-12T14:46:24;32.00;48.90
40257;DHT22;25977;45.462;9.210;2022-07-12T14:48:50;32.10;48.70
40257;DHT22;25977;45.462;9.210;2022-07-12T14:51:16;32.10;48.50
40257;DHT22;25977;45.462;9.210;2022-07-12T14:53:42;31.80;49.50
40257;DHT22;25977;45.462;9.210;2022-07-12T14:56:08;31.80;49.30
40257;DHT22;25977;45.462;9.210;2022-07-12T14:58:34;31.70;49.50
40257;DHT22;25977;45.462;9.210;2022-07-12T15:00:59;31.60;49.70
40257;DHT22;25977;45.462;9.210;2022-07-12T15:03:25;31.70;49.50
40257;DHT22;25977;45.462;9.210;2022-07-12T15:05:52;31.40;49.50
40257;DHT22;25977;45.462;9.210;2022-07-12T15:08:18;31.40;49.60
40257;DHT22;25977;45.462;9.210;2022-07-12T15:10:44;31.40;49.70
40257;DHT22;25977;45.462;9.210;2022-07-12T15:13:09;31.50;49.60
40257;DHT22;25977;45.462;9.210;2022-07-12T15:15:35;31.40;49.60
40257;DHT22;25977;45.462;9.210;2022-07-12T15:18:01;31.60;49.50
40257;DHT22;25977;45.462;9.210;2022-07-12T15:20:27;31.60;49.60
40257;DHT22;25977;45.462;9.210;2022-07-12T15:22:53;31.40;49.80
40257;DHT22;25977;45.462;9.210;2022-07-12T15:25:18;31.30;50.00
40257;DHT22;25977;45.462;9.210;2022-07-12T15:27:44;31.20;50.20
40257;DHT22;25977;45.462;9.210;2022-07-12T15:30:13;31.20;50.40
40257;DHT22;25977;45.462;9.210;2022-07-12T15:32:38;31.30;50.10
40257;DHT22;25977;45.462;9.210;2022-07-12T15:35:05;31.50;50.00
40257;DHT22;25977;45.462;9.210;2022-07-12T15:37:31;31.60;49.90
40257;DHT22;25977;45.462;9.210;2022-07-12T15:39:56;31.60;49.90
40257;DHT22;25977;45.462;9.210;2022-07-12T15:42:22;31.60;49.70
40257;DHT22;25977;45.462;9.210;2022-07-12T15:44:48;31.60;49.30
40257;DHT22;25977;45.462;9.210;2022-07-12T15:47:14;31.60;48.90
40257;DHT22;25977;45.462;9.210;2022-07-12T15:49:40;31.60;49.60
40257;DHT22;25977;45.462;9.210;2022-07-12T15:52:06;31.70;49.00
40257;DHT22;25977;45.462;9.210;2022-07-12T15:54:51;31.70;48.90
40257;DHT22;25977;45.462;9.210;2022-07-12T15:57:17;31.70;48.70